sensor_id;sensor_type;location;lat;lon;timestamp;P1;durP1;ratioP1;P2;durP2;ratioP2
10333;SDS011;5212;47.892;16.406;2023-02-16T00:00:05;55.07;;;32.07;;
10333;SDS011;5212;47.892;16.406;2023-02-16T00:02:33;47.17;;;27.83;;
10333;SDS011;5212;47.892;16.406;2023-02-16T00:05:00;52.13;;;27.57;;
10333;SDS011;5212;47.892;16.406;2023-02-16T00:07:26;45.30;;;25.97;;
10333;SDS011;5212;47.892;16.406;2023-02-16T00:09:54;40.87;;;24.33;;
10333;SDS011;5212;47.892;16.406;2023-02-16T00:12:20;52.93;;;29.57;;
10333;SDS011;5212;47.892;16.406;2023-02-16T00:15:10;39.20;;;22.33;;
10333;SDS011;5212;47.892;16.406;2023-02-16T00:17:40;40.63;;;24.00;;
10333;SDS011;5212;47.892;16.406;2023-02-16T00:20:08;45.27;;;26.67;;
10333;SDS011;5212;47.892;16.406;2023-02-16T00:22:39;46.03;;;26.67;;
10333;SDS011;5212;47.892;16.406;2023-02-16T00:25:07;49.40;;;29.47;;
10333;SDS011;5212;47.892;16.406;2023-02-16T00:27:33;55.77;;;30.40;;
10333;SDS011;5212;47.892;16.406;2023-02-16T00:30:00;52.73;;;29.53;;
10333;SDS011;5212;47.892;16.406;2023-02-16T00:32:27;58.30;;;33.20;;
10333;SDS011;5212;47.892;16.406;2023-02-16T00:34:53;54.10;;;31.00;;
10333;SDS011;5212;47.892;16.406;2023-02-16T00:37:20;59.50;;;34.83;;
10333;SDS011;5212;47.892;16.406;2023-02-16T00:39:46;58.80;;;33.90;;
10333;SDS011;5212;47.892;16.406;2023-02-16T00:42:16;58.40;;;32.20;;
10333;SDS011;5212;47.892;16.406;2023-02-16T00:44:44;59.67;;;32.23;;
10333;SDS011;5212;47.892;16.406;2023-02-16T00:47:15;50.23;;;28.17;;
10333;SDS011;5212;47.892;16.406;2023-02-16T00:49:43;56.10;;;30.00;;
10333;SDS011;5212;47.892;16.406;2023-02-16T00:52:17;48.07;;;27.03;;
10333;SDS011;5212;47.892;16.406;2023-02-16T00:54:57;50.07;;;27.80;;
10333;SDS011;5212;47.892;16.406;2023-02-16T00:57:24;55.57;;;30.43;;
10333;SDS011;5212;47.892;16.406;2023-02-16T00:59:53;61.90;;;32.93;;
10333;SDS011;5212;47.892;16.406;2023-02-16T01:02:23;64.50;;;32.93;;
10333;SDS011;5212;47.892;16.406;2023-02-16T01:04:49;54.50;;;31.33;;
10333;SDS011;5212;47.892;16.406;2023-02-16T01:07:16;58.10;;;31.70;;
10333;SDS011;5212;47.892;16.406;2023-02-16T01:10:01;60.07;;;31.97;;
10333;SDS011;5212;47.892;16.406;2023-02-16T01:12:47;61.37;;;33.80;;
10333;SDS011;5212;47.892;16.406;2023-02-16T01:15:14;62.37;;;33.00;;
10333;SDS011;5212;47.892;16.406;2023-02-16T01:17:41;60.30;;;34.13;;
10333;SDS011;5212;47.892;16.406;2023-02-16T01:20:10;69.30;;;35.70;;
10333;SDS011;5212;47.892;16.406;2023-02-16T01:22:40;67.80;;;35.30;;
10333;SDS011;5212;47.892;16.406;2023-02-16T01:25:06;68.00;;;35.53;;
10333;SDS011;5212;47.892;16.406;2023-02-16T01:27:33;76.77;;;39.90;;
10333;SDS011;5212;47.892;16.406;2023-02-16T01:30:02;67.87;;;36.57;;
10333;SDS011;5212;47.892;16.406;2023-02-16T01:32:29;62.67;;;32.10;;
10333;SDS011;5212;47.892;16.406;2023-02-16T01:34:55;75.97;;;39.10;;
10333;SDS011;5212;47.892;16.406;2023-02-16T01:37:22;73.27;;;33.57;;
10333;SDS011;5212;47.892;16.406;2023-02-16T01:39:48;73.40;;;38.17;;
10333;SDS011;5212;47.892;16.406;2023-02-16T01:42:18;70.67;;;37.07;;
10333;SDS011;5212;47.892;16.406;2023-02-16T01:44:56;71.80;;;36.67;;
10333;SDS011;5212;47.892;16.406;2023-02-16T01:50:12;69.30;;;34.93;;
10333;SDS011;5212;47.892;16.406;2023-02-16T01:52:41;64.07;;;35.10;;
10333;SDS011;5212;47.892;16.406;2023-02-16T01:55:11;60.90;;;31.50;;
10333;SDS011;5212;47.892;16.406;2023-02-16T01:57:41;59.23;;;32.70;;
10333;SDS011;5212;47.892;16.406;2023-02-16T02:00:11;64.30;;;33.30;;
10333;SDS011;5212;47.892;16.406;2023-02-16T02:16:29;50.63;;;27.70;;
10333;SDS011;5212;47.892;16.406;2023-02-16T02:18:56;55.43;;;30.67;;
10333;SDS011;5212;47.892;16.406;2023-02-16T02:21:43;62.47;;;33.20;;
10333;SDS011;5212;47.892;16.406;2023-02-16T02:24:45;47.77;;;26.63;;
10333;SDS011;5212;47.892;16.406;2023-02-16T02:27:24;59.50;;;30.60;;
10333;SDS011;5212;47.892;16.406;2023-02-16T02:32:50;70.90;;;33.60;;
10333;SDS011;5212;47.892;16.406;2023-02-16T02:35:28;66.33;;;32.70;;
10333;SDS011;5212;47.892;16.406;2023-02-16T02:38:02;63.53;;;31.60;;
10333;SDS011;5212;47.892;16.406;2023-02-16T02:40:33;68.20;;;34.73;;
10333;SDS011;5212;47.892;16.406;2023-02-16T02:43:07;57.67;;;29.97;;
10333;SDS011;5212;47.892;16.406;2023-02-16T02:45:37;60.07;;;31.67;;
10333;SDS011;5212;47.892;16.406;2023-02-16T02:48:05;55.40;;;29.27;;
10333;SDS011;5212;47.892;16.406;2023-02-16T02:50:49;61.47;;;31.07;;
10333;SDS011;5212;47.892;16.406;2023-02-16T02:53:36;69.63;;;34.33;;
10333;SDS011;5212;47.892;16.406;2023-02-16T02:56:07;65.73;;;32.80;;
10333;SDS011;5212;47.892;16.406;2023-02-16T02:58:54;71.97;;;33.80;;
10333;SDS011;5212;47.892;16.406;2023-02-16T03:01:41;69.50;;;35.43;;
10333;SDS011;5212;47.892;16.406;2023-02-16T03:04:10;66.03;;;34.00;;
10333;SDS011;5212;47.892;16.406;2023-02-16T03:06:38;61.93;;;31.57;;
10333;SDS011;5212;47.892;16.406;2023-02-16T03:09:09;57.77;;;29.80;;
10333;SDS011;5212;47.892;16.406;2023-02-16T03:11:38;57.77;;;30.20;;
10333;SDS011;5212;47.892;16.406;2023-02-16T03:14:40;49.97;;;26.53;;
10333;SDS011;5212;47.892;16.406;2023-02-16T03:17:09;51.90;;;29.00;;
10333;SDS011;5212;47.892;16.406;2023-02-16T03:19:54;51.07;;;28.90;;
10333;SDS011;5212;47.892;16.406;2023-02-16T03:22:40;45.63;;;25.17;;
10333;SDS011;5212;47.892;16.406;2023-02-16T03:25:25;43.53;;;24.00;;
10333;SDS011;5212;47.892;16.406;2023-02-16T03:28:12;44.70;;;26.03;;
10333;SDS011;5212;47.892;16.406;2023-02-16T03:30:57;43.90;;;24.50;;
10333;SDS011;5212;47.892;16.406;2023-02-16T03:33:27;68.07;;;30.37;;
10333;SDS011;5212;47.892;16.406;2023-02-16T03:35:55;53.80;;;27.87;;
10333;SDS011;5212;47.892;16.406;2023-02-16T03:38:22;49.93;;;27.03;;
10333;SDS011;5212;47.892;16.406;2023-02-16T03:40:49;44.17;;;25.70;;
10333;SDS011;5212;47.892;16.406;2023-02-16T03:43:16;39.33;;;22.30;;
10333;SDS011;5212;47.892;16.406;2023-02-16T03:45:43;36.90;;;22.57;;
10333;SDS011;5212;47.892;16.406;2023-02-16T03:48:11;37.17;;;20.60;;
10333;SDS011;5212;47.892;16.406;2023-02-16T03:50:37;35.07;;;20.97;;
10333;SDS011;5212;47.892;16.406;2023-02-16T03:53:04;39.77;;;23.10;;
10333;SDS011;5212;47.892;16.406;2023-02-16T03:55:34;36.60;;;22.70;;
10333;SDS011;5212;47.892;16.406;2023-02-16T03:58:01;36.20;;;21.60;;
10333;SDS011;5212;47.892;16.406;2023-02-16T04:00:28;41.73;;;24.37;;
10333;SDS011;5212;47.892;16.406;2023-02-16T04:02:55;35.07;;;20.97;;
10333;SDS011;5212;47.892;16.406;2023-02-16T04:05:22;35.17;;;20.80;;
10333;SDS011;5212;47.892;16.406;2023-02-16T04:07:49;35.30;;;20.20;;
10333;SDS011;5212;47.892;16.406;2023-02-16T04:10:15;37.73;;;20.83;;
10333;SDS011;5212;47.892;16.406;2023-02-16T04:12:42;33.70;;;19.83;;
10333;SDS011;5212;47.892;16.406;2023-02-16T04:15:09;46.00;;;28.20;;
10333;SDS011;5212;47.892;16.406;2023-02-16T04:17:36;43.63;;;25.57;;
10333;SDS011;5212;47.892;16.406;2023-02-16T04:20:03;45.83;;;27.40;;
10333;SDS011;5212;47.892;16.406;2023-02-16T04:22:32;41.10;;;24.60;;
10333;SDS011;5212;47.892;16.406;2023-02-16T04:24:58;44.60;;;26.93;;
10333;SDS011;5212;47.892;16.406;2023-02-16T04:27:24;56.00;;;27.47;;
10333;SDS011;5212;47.892;16.406;2023-02-16T04:29:51;43.80;;;26.83;;
10333;SDS011;5212;47.892;16.406;2023-02-16T04:32:17;40.63;;;24.57;;
10333;SDS011;5212;47.892;16.406;2023-02-16T04:34:44;48.77;;;26.57;;
10333;SDS011;5212;47.892;16.406;2023-02-16T04:37:10;40.13;;;24.90;;
10333;SDS011;5212;47.892;16.406;2023-02-16T04:39:38;50.53;;;27.33;;
10333;SDS011;5212;47.892;16.406;2023-02-16T04:42:04;58.47;;;27.33;;
10333;SDS011;5212;47.892;16.406;2023-02-16T04:44:31;53.70;;;26.83;;
10333;SDS011;5212;47.892;16.406;2023-02-16T04:46:58;40.60;;;24.57;;
10333;SDS011;5212;47.892;16.406;2023-02-16T04:49:24;42.20;;;24.07;;
10333;SDS011;5212;47.892;16.406;2023-02-16T04:51:51;44.67;;;25.33;;
10333;SDS011;5212;47.892;16.406;2023-02-16T04:54:17;45.20;;;24.33;;
10333;SDS011;5212;47.892;16.406;2023-02-16T04:56:47;43.03;;;24.43;;
10333;SDS011;5212;47.892;16.406;2023-02-16T04:59:14;44.57;;;26.10;;
10333;SDS011;5212;47.892;16.406;2023-02-16T05:01:41;42.33;;;25.27;;
10333;SDS011;5212;47.892;16.406;2023-02-16T05:04:07;42.23;;;24.33;;
10333;SDS011;5212;47.892;16.406;2023-02-16T05:06:34;42.10;;;24.90;;
10333;SDS011;5212;47.892;16.406;2023-02-16T05:09:03;40.77;;;22.50;;
10333;SDS011;5212;47.892;16.406;2023-02-16T05:11:30;35.13;;;21.13;;
10333;SDS011;5212;47.892;16.406;2023-02-16T05:14:18;43.90;;;21.50;;
10333;SDS011;5212;47.892;16.406;2023-02-16T05:17:03;41.57;;;20.30;;
10333;SDS011;5212;47.892;16.406;2023-02-16T05:19:29;38.57;;;23.20;;
10333;SDS011;5212;47.892;16.406;2023-02-16T05:21:56;42.37;;;22.37;;
10333;SDS011;5212;47.892;16.406;2023-02-16T05:24:24;45.20;;;24.90;;
10333;SDS011;5212;47.892;16.406;2023-02-16T05:26:50;51.20;;;26.73;;
10333;SDS011;5212;47.892;16.406;2023-02-16T05:29:18;39.07;;;24.30;;
10333;SDS011;5212;47.892;16.406;2023-02-16T05:31:44;42.93;;;23.80;;
10333;SDS011;5212;47.892;16.406;2023-02-16T05:34:11;39.77;;;24.03;;
10333;SDS011;5212;47.892;16.406;2023-02-16T05:36:38;37.47;;;22.60;;
10333;SDS011;5212;47.892;16.406;2023-02-16T05:39:04;31.53;;;20.33;;
10333;SDS011;5212;47.892;16.406;2023-02-16T05:41:31;47.50;;;26.87;;
10333;SDS011;5212;47.892;16.406;2023-02-16T05:43:58;43.47;;;25.53;;
10333;SDS011;5212;47.892;16.406;2023-02-16T05:46:27;46.23;;;26.00;;
10333;SDS011;5212;47.892;16.406;2023-02-16T05:48:54;45.30;;;25.30;;
10333;SDS011;5212;47.892;16.406;2023-02-16T05:51:21;39.57;;;24.40;;
10333;SDS011;5212;47.892;16.406;2023-02-16T05:53:47;41.87;;;23.10;;
10333;SDS011;5212;47.892;16.406;2023-02-16T05:56:14;43.17;;;25.13;;
10333;SDS011;5212;47.892;16.406;2023-02-16T05:58:41;39.03;;;23.80;;
10333;SDS011;5212;47.892;16.406;2023-02-16T06:01:07;38.93;;;22.07;;
10333;SDS011;5212;47.892;16.406;2023-02-16T06:03:34;40.63;;;24.47;;
10333;SDS011;5212;47.892;16.406;2023-02-16T06:06:01;39.20;;;24.03;;
10333;SDS011;5212;47.892;16.406;2023-02-16T06:08:28;39.73;;;23.70;;
10333;SDS011;5212;47.892;16.406;2023-02-16T06:10:55;39.57;;;21.60;;
10333;SDS011;5212;47.892;16.406;2023-02-16T06:13:22;40.30;;;24.13;;
10333;SDS011;5212;47.892;16.406;2023-02-16T06:15:50;44.80;;;25.40;;
10333;SDS011;5212;47.892;16.406;2023-02-16T06:18:17;47.90;;;25.17;;
10333;SDS011;5212;47.892;16.406;2023-02-16T06:20:45;32.60;;;20.63;;
10333;SDS011;5212;47.892;16.406;2023-02-16T06:23:12;35.63;;;21.20;;
10333;SDS011;5212;47.892;16.406;2023-02-16T06:25:40;36.83;;;22.17;;
10333;SDS011;5212;47.892;16.406;2023-02-16T06:28:06;32.53;;;19.47;;
10333;SDS011;5212;47.892;16.406;2023-02-16T06:30:33;43.63;;;25.03;;
10333;SDS011;5212;47.892;16.406;2023-02-16T06:32:59;36.70;;;22.13;;
10333;SDS011;5212;47.892;16.406;2023-02-16T06:35:26;56.27;;;30.60;;
10333;SDS011;5212;47.892;16.406;2023-02-16T06:37:53;42.23;;;27.00;;
10333;SDS011;5212;47.892;16.406;2023-02-16T06:40:20;52.93;;;27.17;;
10333;SDS011;5212;47.892;16.406;2023-02-16T06:42:46;48.77;;;29.30;;
10333;SDS011;5212;47.892;16.406;2023-02-16T06:45:13;42.37;;;25.03;;
10333;SDS011;5212;47.892;16.406;2023-02-16T06:47:39;41.90;;;24.43;;
10333;SDS011;5212;47.892;16.406;2023-02-16T06:50:06;35.47;;;22.03;;
10333;SDS011;5212;47.892;16.406;2023-02-16T06:52:34;38.83;;;23.07;;
10333;SDS011;5212;47.892;16.406;2023-02-16T06:55:02;33.30;;;19.50;;
10333;SDS011;5212;47.892;16.406;2023-02-16T06:57:31;30.80;;;19.67;;
10333;SDS011;5212;47.892;16.406;2023-02-16T06:59:57;35.47;;;21.40;;
10333;SDS011;5212;47.892;16.406;2023-02-16T07:02:24;36.63;;;21.93;;
10333;SDS011;5212;47.892;16.406;2023-02-16T07:04:50;36.50;;;23.37;;
10333;SDS011;5212;47.892;16.406;2023-02-16T07:07:17;34.00;;;21.47;;
10333;SDS011;5212;47.892;16.406;2023-02-16T07:09:43;31.93;;;20.60;;
10333;SDS011;5212;47.892;16.406;2023-02-16T07:12:11;39.33;;;23.10;;
10333;SDS011;5212;47.892;16.406;2023-02-16T07:14:37;45.30;;;23.63;;
10333;SDS011;5212;47.892;16.406;2023-02-16T07:17:04;38.07;;;23.00;;
10333;SDS011;5212;47.892;16.406;2023-02-16T07:19:30;44.43;;;22.67;;
10333;SDS011;5212;47.892;16.406;2023-02-16T07:21:57;36.40;;;23.37;;
10333;SDS011;5212;47.892;16.406;2023-02-16T07:24:24;44.80;;;24.27;;
10333;SDS011;5212;47.892;16.406;2023-02-16T07:26:51;42.60;;;24.47;;
10333;SDS011;5212;47.892;16.406;2023-02-16T07:29:18;42.00;;;23.17;;
10333;SDS011;5212;47.892;16.406;2023-02-16T07:31:45;32.07;;;19.47;;
10333;SDS011;5212;47.892;16.406;2023-02-16T07:34:11;38.43;;;22.97;;
10333;SDS011;5212;47.892;16.406;2023-02-16T07:36:38;38.70;;;23.57;;
10333;SDS011;5212;47.892;16.406;2023-02-16T07:39:04;38.87;;;22.77;;
10333;SDS011;5212;47.892;16.406;2023-02-16T07:41:30;37.23;;;21.10;;
10333;SDS011;5212;47.892;16.406;2023-02-16T07:43:57;40.57;;;24.17;;
10333;SDS011;5212;47.892;16.406;2023-02-16T07:46:25;36.40;;;22.10;;
10333;SDS011;5212;47.892;16.406;2023-02-16T07:48:51;41.67;;;22.53;;
10333;SDS011;5212;47.892;16.406;2023-02-16T07:51:21;47.10;;;24.67;;
10333;SDS011;5212;47.892;16.406;2023-02-16T07:53:49;39.50;;;22.53;;
10333;SDS011;5212;47.892;16.406;2023-02-16T07:56:17;38.73;;;22.93;;
10333;SDS011;5212;47.892;16.406;2023-02-16T07:58:46;34.67;;;21.50;;
10333;SDS011;5212;47.892;16.406;2023-02-16T08:01:13;34.97;;;22.43;;
10333;SDS011;5212;47.892;16.406;2023-02-16T08:03:43;50.60;;;25.37;;
10333;SDS011;5212;47.892;16.406;2023-02-16T08:06:09;43.57;;;24.97;;
10333;SDS011;5212;47.892;16.406;2023-02-16T08:08:36;36.30;;;21.83;;
10333;SDS011;5212;47.892;16.406;2023-02-16T08:11:06;40.30;;;23.73;;
10333;SDS011;5212;47.892;16.406;2023-02-16T08:13:34;43.90;;;26.03;;
10333;SDS011;5212;47.892;16.406;2023-02-16T08:16:00;39.87;;;22.47;;
10333;SDS011;5212;47.892;16.406;2023-02-16T08:18:27;40.80;;;25.40;;
10333;SDS011;5212;47.892;16.406;2023-02-16T08:20:55;85.70;;;39.77;;
10333;SDS011;5212;47.892;16.406;2023-02-16T08:23:22;73.17;;;33.23;;
10333;SDS011;5212;47.892;16.406;2023-02-16T08:25:48;44.47;;;25.60;;
10333;SDS011;5212;47.892;16.406;2023-02-16T08:28:15;46.93;;;28.53;;
10333;SDS011;5212;47.892;16.406;2023-02-16T08:30:41;46.60;;;25.63;;
10333;SDS011;5212;47.892;16.406;2023-02-16T08:33:08;45.97;;;27.70;;
10333;SDS011;5212;47.892;16.406;2023-02-16T08:35:36;48.80;;;28.77;;
10333;SDS011;5212;47.892;16.406;2023-02-16T08:38:03;48.73;;;29.40;;
10333;SDS011;5212;47.892;16.406;2023-02-16T08:40:33;45.17;;;26.40;;
10333;SDS011;5212;47.892;16.406;2023-02-16T08:42:59;51.87;;;27.83;;
10333;SDS011;5212;47.892;16.406;2023-02-16T08:45:25;45.17;;;27.33;;
10333;SDS011;5212;47.892;16.406;2023-02-16T08:47:53;40.57;;;23.67;;
10333;SDS011;5212;47.892;16.406;2023-02-16T08:50:19;42.90;;;24.70;;
10333;SDS011;5212;47.892;16.406;2023-02-16T08:52:46;43.93;;;25.27;;
10333;SDS011;5212;47.892;16.406;2023-02-16T08:55:14;46.77;;;28.33;;
10333;SDS011;5212;47.892;16.406;2023-02-16T08:57:41;45.60;;;26.83;;
10333;SDS011;5212;47.892;16.406;2023-02-16T09:00:12;40.50;;;24.43;;
10333;SDS011;5212;47.892;16.406;2023-02-16T09:02:57;47.73;;;26.97;;
10333;SDS011;5212;47.892;16.406;2023-02-16T09:05:24;49.20;;;28.83;;
10333;SDS011;5212;47.892;16.406;2023-02-16T09:07:52;49.23;;;28.43;;
10333;SDS011;5212;47.892;16.406;2023-02-16T09:10:19;47.57;;;27.03;;
10333;SDS011;5212;47.892;16.406;2023-02-16T09:12:47;60.70;;;30.63;;
10333;SDS011;5212;47.892;16.406;2023-02-16T09:15:14;47.17;;;27.60;;
10333;SDS011;5212;47.892;16.406;2023-02-16T09:17:40;45.97;;;26.10;;
10333;SDS011;5212;47.892;16.406;2023-02-16T09:20:07;48.83;;;29.03;;
10333;SDS011;5212;47.892;16.406;2023-02-16T09:22:34;45.50;;;25.40;;
10333;SDS011;5212;47.892;16.406;2023-02-16T09:25:01;46.50;;;27.07;;
10333;SDS011;5212;47.892;16.406;2023-02-16T09:27:28;58.37;;;30.50;;
10333;SDS011;5212;47.892;16.406;2023-02-16T09:29:55;70.47;;;40.53;;
10333;SDS011;5212;47.892;16.406;2023-02-16T09:32:26;52.40;;;29.93;;
10333;SDS011;5212;47.892;16.406;2023-02-16T09:34:53;60.07;;;31.57;;
10333;SDS011;5212;47.892;16.406;2023-02-16T09:37:19;48.17;;;28.47;;
10333;SDS011;5212;47.892;16.406;2023-02-16T09:39:46;59.43;;;36.57;;
10333;SDS011;5212;47.892;16.406;2023-02-16T09:42:18;59.17;;;29.90;;
10333;SDS011;5212;47.892;16.406;2023-02-16T09:44:52;49.00;;;27.90;;
10333;SDS011;5212;47.892;16.406;2023-02-16T09:47:21;51.97;;;29.90;;
10333;SDS011;5212;47.892;16.406;2023-02-16T09:49:50;53.67;;;29.27;;
10333;SDS011;5212;47.892;16.406;2023-02-16T09:52:22;49.97;;;28.07;;
10333;SDS011;5212;47.892;16.406;2023-02-16T09:54:52;46.83;;;24.90;;
10333;SDS011;5212;47.892;16.406;2023-02-16T09:57:22;53.40;;;29.60;;
10333;SDS011;5212;47.892;16.406;2023-02-16T10:00:03;43.63;;;25.37;;
10333;SDS011;5212;47.892;16.406;2023-02-16T10:02:37;50.13;;;27.53;;
10333;SDS011;5212;47.892;16.406;2023-02-16T10:05:17;49.87;;;27.97;;
10333;SDS011;5212;47.892;16.406;2023-02-16T10:07:53;46.83;;;28.03;;
10333;SDS011;5212;47.892;16.406;2023-02-16T10:10:23;64.37;;;32.20;;
10333;SDS011;5212;47.892;16.406;2023-02-16T10:12:51;46.73;;;27.43;;
10333;SDS011;5212;47.892;16.406;2023-02-16T10:15:21;48.30;;;27.97;;
10333;SDS011;5212;47.892;16.406;2023-02-16T10:17:51;53.37;;;31.03;;
10333;SDS011;5212;47.892;16.406;2023-02-16T10:20:20;57.93;;;31.83;;
10333;SDS011;5212;47.892;16.406;2023-02-16T10:22:51;48.00;;;26.30;;
10333;SDS011;5212;47.892;16.406;2023-02-16T10:25:20;51.97;;;28.67;;
10333;SDS011;5212;47.892;16.406;2023-02-16T10:27:50;53.30;;;28.97;;
10333;SDS011;5212;47.892;16.406;2023-02-16T10:30:22;50.17;;;27.73;;
10333;SDS011;5212;47.892;16.406;2023-02-16T10:32:55;56.37;;;31.03;;
10333;SDS011;5212;47.892;16.406;2023-02-16T10:35:24;59.23;;;35.50;;
10333;SDS011;5212;47.892;16.406;2023-02-16T10:37:58;54.17;;;31.33;;
10333;SDS011;5212;47.892;16.406;2023-02-16T10:40:32;44.93;;;26.03;;
10333;SDS011;5212;47.892;16.406;2023-02-16T10:43:04;46.73;;;26.60;;
10333;SDS011;5212;47.892;16.406;2023-02-16T10:45:38;43.07;;;24.20;;
10333;SDS011;5212;47.892;16.406;2023-02-16T10:48:09;52.03;;;28.90;;
10333;SDS011;5212;47.892;16.406;2023-02-16T10:50:36;42.80;;;24.30;;
10333;SDS011;5212;47.892;16.406;2023-02-16T10:53:05;44.17;;;25.37;;
10333;SDS011;5212;47.892;16.406;2023-02-16T10:55:36;38.37;;;22.60;;
10333;SDS011;5212;47.892;16.406;2023-02-16T10:58:02;42.83;;;25.13;;
10333;SDS011;5212;47.892;16.406;2023-02-16T11:00:32;38.90;;;22.43;;
10333;SDS011;5212;47.892;16.406;2023-02-16T11:03:08;43.40;;;24.40;;
10333;SDS011;5212;47.892;16.406;2023-02-16T11:05:37;39.17;;;23.63;;
10333;SDS011;5212;47.892;16.406;2023-02-16T11:08:07;42.77;;;25.37;;
10333;SDS011;5212;47.892;16.406;2023-02-16T11:10:38;44.63;;;25.40;;
10333;SDS011;5212;47.892;16.406;2023-02-16T11:13:07;39.73;;;23.30;;
10333;SDS011;5212;47.892;16.406;2023-02-16T11:15:49;39.03;;;23.20;;
10333;SDS011;5212;47.892;16.406;2023-02-16T11:18:22;47.43;;;27.47;;
10333;SDS011;5212;47.892;16.406;2023-02-16T11:20:54;41.37;;;24.67;;
10333;SDS011;5212;47.892;16.406;2023-02-16T11:23:23;47.37;;;27.33;;
10333;SDS011;5212;47.892;16.406;2023-02-16T11:25:54;44.10;;;25.93;;
10333;SDS011;5212;47.892;16.406;2023-02-16T11:28:26;47.43;;;27.53;;
10333;SDS011;5212;47.892;16.406;2023-02-16T11:31:09;47.27;;;27.10;;
10333;SDS011;5212;47.892;16.406;2023-02-16T11:33:38;43.93;;;26.23;;
10333;SDS011;5212;47.892;16.406;2023-02-16T11:36:17;45.20;;;26.47;;
10333;SDS011;5212;47.892;16.406;2023-02-16T11:38:53;42.17;;;25.43;;
10333;SDS011;5212;47.892;16.406;2023-02-16T11:41:22;44.93;;;27.70;;
10333;SDS011;5212;47.892;16.406;2023-02-16T11:43:49;46.83;;;26.83;;
10333;SDS011;5212;47.892;16.406;2023-02-16T11:46:17;47.03;;;27.97;;
10333;SDS011;5212;47.892;16.406;2023-02-16T11:48:45;45.10;;;27.07;;
10333;SDS011;5212;47.892;16.406;2023-02-16T11:51:14;43.57;;;25.97;;
10333;SDS011;5212;47.892;16.406;2023-02-16T11:53:58;42.47;;;26.50;;
10333;SDS011;5212;47.892;16.406;2023-02-16T11:56:27;43.97;;;25.30;;
10333;SDS011;5212;47.892;16.406;2023-02-16T11:59:04;37.70;;;24.00;;
10333;SDS011;5212;47.892;16.406;2023-02-16T12:01:41;40.47;;;25.47;;
10333;SDS011;5212;47.892;16.406;2023-02-16T12:04:39;43.03;;;25.43;;
10333;SDS011;5212;47.892;16.406;2023-02-16T12:07:16;44.00;;;27.83;;
10333;SDS011;5212;47.892;16.406;2023-02-16T12:09:52;42.33;;;27.53;;
10333;SDS011;5212;47.892;16.406;2023-02-16T12:12:28;42.80;;;25.97;;
10333;SDS011;5212;47.892;16.406;2023-02-16T12:15:00;45.57;;;28.60;;
10333;SDS011;5212;47.892;16.406;2023-02-16T12:23:14;43.40;;;26.47;;
10333;SDS011;5212;47.892;16.406;2023-02-16T12:25:49;37.97;;;24.83;;
10333;SDS011;5212;47.892;16.406;2023-02-16T12:28:24;40.80;;;27.83;;
10333;SDS011;5212;47.892;16.406;2023-02-16T12:30:56;42.70;;;28.17;;
10333;SDS011;5212;47.892;16.406;2023-02-16T12:33:30;47.97;;;30.33;;
10333;SDS011;5212;47.892;16.406;2023-02-16T12:36:06;42.20;;;27.10;;
10333;SDS011;5212;47.892;16.406;2023-02-16T12:38:46;42.80;;;26.80;;
10333;SDS011;5212;47.892;16.406;2023-02-16T12:41:19;43.17;;;26.17;;
10333;SDS011;5212;47.892;16.406;2023-02-16T12:43:51;47.67;;;29.90;;
10333;SDS011;5212;47.892;16.406;2023-02-16T12:46:20;44.47;;;29.93;;
10333;SDS011;5212;47.892;16.406;2023-02-16T12:48:51;42.43;;;28.60;;
10333;SDS011;5212;47.892;16.406;2023-02-16T12:51:22;47.17;;;30.33;;
10333;SDS011;5212;47.892;16.406;2023-02-16T12:53:55;46.87;;;28.30;;
10333;SDS011;5212;47.892;16.406;2023-02-16T12:56:25;44.70;;;28.80;;
10333;SDS011;5212;47.892;16.406;2023-02-16T12:58:58;42.40;;;28.27;;
10333;SDS011;5212;47.892;16.406;2023-02-16T13:01:32;44.63;;;28.27;;
10333;SDS011;5212;47.892;16.406;2023-02-16T13:04:02;46.87;;;31.03;;
10333;SDS011;5212;47.892;16.406;2023-02-16T13:06:33;47.77;;;31.20;;
10333;SDS011;5212;47.892;16.406;2023-02-16T13:09:07;43.20;;;27.50;;
10333;SDS011;5212;47.892;16.406;2023-02-16T13:11:39;48.07;;;30.60;;
10333;SDS011;5212;47.892;16.406;2023-02-16T13:14:10;52.90;;;32.63;;
10333;SDS011;5212;47.892;16.406;2023-02-16T13:16:41;52.10;;;32.27;;
10333;SDS011;5212;47.892;16.406;2023-02-16T13:19:10;48.43;;;29.67;;
10333;SDS011;5212;47.892;16.406;2023-02-16T13:21:58;51.70;;;32.10;;
10333;SDS011;5212;47.892;16.406;2023-02-16T13:24:47;53.17;;;31.63;;
10333;SDS011;5212;47.892;16.406;2023-02-16T13:27:22;48.00;;;30.27;;
10333;SDS011;5212;47.892;16.406;2023-02-16T13:30:03;44.80;;;29.17;;
10333;SDS011;5212;47.892;16.406;2023-02-16T13:32:56;46.00;;;27.53;;
10333;SDS011;5212;47.892;16.406;2023-02-16T13:38:42;54.23;;;32.53;;
10333;SDS011;5212;47.892;16.406;2023-02-16T13:41:33;52.23;;;30.83;;
10333;SDS011;5212;47.892;16.406;2023-02-16T13:44:06;48.97;;;29.70;;
10333;SDS011;5212;47.892;16.406;2023-02-16T13:46:36;50.70;;;30.80;;
10333;SDS011;5212;47.892;16.406;2023-02-16T13:49:04;54.37;;;32.63;;
10333;SDS011;5212;47.892;16.406;2023-02-16T13:51:39;52.63;;;31.80;;
10333;SDS011;5212;47.892;16.406;2023-02-16T13:54:12;50.53;;;30.73;;
10333;SDS011;5212;47.892;16.406;2023-02-16T13:56:47;48.47;;;29.93;;
10333;SDS011;5212;47.892;16.406;2023-02-16T14:05:21;47.13;;;28.37;;
10333;SDS011;5212;47.892;16.406;2023-02-16T14:08:06;44.80;;;27.80;;
10333;SDS011;5212;47.892;16.406;2023-02-16T14:13:44;51.37;;;31.33;;
10333;SDS011;5212;47.892;16.406;2023-02-16T14:16:24;43.63;;;27.00;;
10333;SDS011;5212;47.892;16.406;2023-02-16T14:18:53;50.17;;;30.73;;
10333;SDS011;5212;47.892;16.406;2023-02-16T14:21:25;49.70;;;30.43;;
10333;SDS011;5212;47.892;16.406;2023-02-16T14:23:56;43.30;;;26.37;;
10333;SDS011;5212;47.892;16.406;2023-02-16T14:26:26;45.07;;;28.23;;
10333;SDS011;5212;47.892;16.406;2023-02-16T14:31:46;43.47;;;27.97;;
10333;SDS011;5212;47.892;16.406;2023-02-16T14:34:19;42.17;;;27.30;;
10333;SDS011;5212;47.892;16.406;2023-02-16T14:39:53;40.67;;;26.47;;
10333;SDS011;5212;47.892;16.406;2023-02-16T14:42:23;42.83;;;26.70;;
10333;SDS011;5212;47.892;16.406;2023-02-16T14:44:58;50.30;;;31.93;;
10333;SDS011;5212;47.892;16.406;2023-02-16T14:47:32;45.60;;;28.83;;
10333;SDS011;5212;47.892;16.406;2023-02-16T14:50:22;45.50;;;28.87;;
10333;SDS011;5212;47.892;16.406;2023-02-16T14:53:02;45.33;;;27.80;;
10333;SDS011;5212;47.892;16.406;2023-02-16T14:56:01;49.73;;;30.43;;
10333;SDS011;5212;47.892;16.406;2023-02-16T14:58:37;49.37;;;31.17;;
10333;SDS011;5212;47.892;16.406;2023-02-16T15:01:10;43.47;;;27.07;;
10333;SDS011;5212;47.892;16.406;2023-02-16T15:03:40;44.47;;;27.17;;
10333;SDS011;5212;47.892;16.406;2023-02-16T15:06:13;42.17;;;26.33;;
10333;SDS011;5212;47.892;16.406;2023-02-16T15:08:44;40.23;;;25.77;;
10333;SDS011;5212;47.892;16.406;2023-02-16T15:11:18;44.40;;;27.17;;
10333;SDS011;5212;47.892;16.406;2023-02-16T15:13:47;43.73;;;27.10;;
10333;SDS011;5212;47.892;16.406;2023-02-16T15:16:17;49.97;;;28.70;;
10333;SDS011;5212;47.892;16.406;2023-02-16T15:18:45;48.37;;;30.63;;
10333;SDS011;5212;47.892;16.406;2023-02-16T15:21:16;46.23;;;28.97;;
10333;SDS011;5212;47.892;16.406;2023-02-16T15:23:49;48.73;;;29.63;;